Time;durP1;ratioP1;P1;durP2;ratioP2;P2;SDS_P1;SDS_P2;PMS_P1;PMS_P2;Temp;Humidity;BMP_temperature;BMP_pressure;BME280_temperature;BME280_humidity;BME280_pressure;Samples;Min_cycle;Max_cycle;Signal;HPM_P1;HPM_P2
2023/09/07 00:02:18;;;;;;;1.90;1.20;;;16.30;99.90;;;;;;4194654;28;20044;-60
2023/09/07 00:04:49;;;;;;;1.63;1.52;;;16.20;99.90;;;;;;4191873;28;20079;-59
2023/09/07 00:07:09;;;;;;;1.20;1.20;;;16.30;99.90;;;;;;4191556;28;20136;-60
2023/09/07 00:09:29;;;;;;;1.48;1.17;;;16.40;99.90;;;;;;4191757;28;20412;-60
2023/09/07 00:11:49;;;;;;;1.48;1.48;;;16.40;99.90;;;;;;4192592;28;20086;-60
2023/09/07 00:14:10;;;;;;;1.60;1.27;;;16.40;99.90;;;;;;4193085;28;20067;-59
2023/09/07 00:16:38;;;;;;;1.35;1.35;;;16.20;99.90;;;;;;4192034;28;20040;-59
2023/09/07 00:18:58;;;;;;;2.25;1.35;;;16.20;99.90;;;;;;4192840;28;20079;-59
2023/09/07 00:21:18;;;;;;;1.38;1.20;;;16.10;99.90;;;;;;4192413;28;20056;-60
2023/09/07 00:23:40;;;;;;;1.55;1.55;;;16.10;99.90;;;;;;4190904;28;20113;-60
2023/09/07 00:25:59;;;;;;;3.08;1.25;;;16.20;99.90;;;;;;4190996;28;20362;-60
2023/09/07 00:28:19;;;;;;;1.10;1.10;;;16.20;99.90;;;;;;4190827;28;20240;-60
2023/09/07 00:30:40;;;;;;;1.35;1.35;;;16.10;99.90;;;;;;4192681;28;20051;-60
2023/09/07 00:33:00;;;;;;;1.30;1.30;;;16.10;99.90;;;;;;4192035;28;20390;-60
2023/09/07 00:35:21;;;;;;;1.17;1.08;;;16.10;99.90;;;;;;4189784;28;20067;-59
2023/09/07 00:37:40;;;;;;;1.25;1.25;;;16.10;99.90;;;;;;4192331;28;20039;-60
2023/09/07 00:40:00;;;;;;;0.98;0.98;;;16.00;99.90;;;;;;4192333;28;20064;-60
2023/09/07 00:42:21;;;;;;;1.42;1.17;;;16.10;99.90;;;;;;4193335;28;20059;-60
2023/09/07 00:44:40;;;;;;;1.20;1.20;;;16.30;99.90;;;;;;4193116;28;20067;-60
2023/09/07 00:47:01;;;;;;;1.70;1.70;;;16.30;99.90;;;;;;4192076;28;20043;-60
2023/09/07 00:49:40;;;;;;;1.20;1.20;;;16.30;99.90;;;;;;4190334;28;20406;-60
2023/09/07 00:52:00;;;;;;;1.45;1.40;;;16.30;99.90;;;;;;4191084;28;20062;-60
2023/09/07 00:54:20;;;;;;;1.17;1.17;;;16.30;99.90;;;;;;4188502;28;20228;-59
2023/09/07 00:56:41;;;;;;;2.67;1.48;;;16.10;99.90;;;;;;4191051;28;20052;-59
2023/09/07 00:59:02;;;;;;;1.00;1.00;;;16.00;99.90;;;;;;4190253;28;20044;-59
2023/09/07 01:01:23;;;;;;;1.30;1.30;;;15.90;99.90;;;;;;4190164;28;20087;-60
2023/09/07 01:03:44;;;;;;;1.35;1.35;;;15.90;99.90;;;;;;4201613;28;20123;-59
2023/09/07 01:06:12;;;;;;;1.20;1.20;;;15.90;99.90;;;;;;4198248;28;20086;-60
2023/09/07 01:08:38;;;;;;;1.20;1.20;;;15.80;99.90;;;;;;4197994;28;20106;-59
2023/09/07 01:10:58;;;;;;;1.30;1.30;;;15.60;99.90;;;;;;4189321;28;20124;-60
2023/09/07 01:13:20;;;;;;;1.33;1.33;;;15.60;99.90;;;;;;4196218;28;20047;-59
2023/09/07 01:15:39;;;;;;;1.10;1.10;;;15.70;99.90;;;;;;4192184;28;20122;-59
2023/09/07 01:18:01;;;;;;;1.30;1.30;;;15.80;99.90;;;;;;4189529;28;20055;-59
2023/09/07 01:20:42;;;;;;;1.10;1.10;;;15.80;99.90;;;;;;4190740;28;20270;-59
2023/09/07 01:23:04;;;;;;;2.03;1.23;;;15.90;99.90;;;;;;4188279;28;20079;-60
2023/09/07 01:25:24;;;;;;;1.30;1.30;;;15.70;99.90;;;;;;4190742;28;20094;-59
2023/09/07 01:27:45;;;;;;;1.40;1.40;;;15.70;99.90;;;;;;4190317;28;20108;-59
2023/09/07 01:30:05;;;;;;;1.25;1.25;;;15.70;99.90;;;;;;4189286;28;20047;-59
2023/09/07 01:32:26;;;;;;;1.70;1.60;;;15.60;99.90;;;;;;4188459;28;20052;-60
2023/09/07 01:34:47;;;;;;;1.40;1.40;;;15.50;99.90;;;;;;4188933;28;20520;-59
2023/09/07 01:37:07;;;;;;;1.17;1.17;;;15.60;99.90;;;;;;4199039;28;20088;-59
2023/09/07 01:39:27;;;;;;;1.60;1.60;;;15.50;99.90;;;;;;4193931;28;20063;-59
2023/09/07 01:41:47;;;;;;;1.52;1.42;;;15.50;99.90;;;;;;4189732;28;20094;-60
2023/09/07 01:44:07;;;;;;;1.48;1.35;;;15.60;99.90;;;;;;4188223;28;20048;-60
2023/09/07 01:46:27;;;;;;;1.50;1.50;;;15.50;99.90;;;;;;4191906;28;20078;-59
2023/09/07 01:48:47;;;;;;;1.00;1.00;;;15.60;99.90;;;;;;4189216;28;20398;-59
2023/09/07 01:51:08;;;;;;;1.25;1.17;;;15.50;99.90;;;;;;4189183;28;20087;-59
2023/09/07 01:53:28;;;;;;;1.23;1.23;;;15.50;99.90;;;;;;4189363;28;20367;-60
2023/09/07 01:55:48;;;;;;;1.30;1.30;;;15.50;99.90;;;;;;4199471;28;20063;-59
2023/09/07 01:58:08;;;;;;;1.30;1.30;;;15.50;99.90;;;;;;4189113;28;20279;-59
2023/09/07 02:00:29;;;;;;;1.48;1.48;;;15.50;99.90;;;;;;4194831;28;20365;-59
2023/09/07 02:02:49;;;;;;;1.35;1.35;;;15.50;99.90;;;;;;4197007;28;20087;-59
2023/09/07 02:05:09;;;;;;;1.23;1.23;;;15.60;99.90;;;;;;4188989;28;20247;-59
2023/09/07 02:07:29;;;;;;;1.73;1.30;;;15.70;99.90;;;;;;4188239;28;20104;-59
2023/09/07 02:09:50;;;;;;;1.33;1.33;;;15.70;99.90;;;;;;4187503;28;20095;-59
2023/09/07 02:12:11;;;;;;;1.30;1.30;;;15.60;99.90;;;;;;4188949;28;20244;-59
2023/09/07 02:14:31;;;;;;;1.60;1.55;;;15.50;99.90;;;;;;4188211;28;20082;-59
2023/09/07 02:16:51;;;;;;;1.30;1.30;;;15.50;99.90;;;;;;4187898;28;20051;-60
2023/09/07 02:19:11;;;;;;;3.03;1.67;;;15.50;99.90;;;;;;4189420;28;20056;-59
2023/09/07 02:21:32;;;;;;;1.73;1.27;;;15.50;99.90;;;;;;4188350;28;20075;-59
2023/09/07 02:23:52;;;;;;;1.40;1.40;;;15.50;99.90;;;;;;4189806;28;20103;-59
2023/09/07 02:26:12;;;;;;;1.52;1.40;;;15.50;99.90;;;;;;4188863;28;20047;-59
2023/09/07 02:28:32;;;;;;;1.67;1.67;;;15.40;99.90;;;;;;4193097;28;20136;-59
2023/09/07 02:30:53;;;;;;;1.50;1.50;;;15.40;99.90;;;;;;4195291;28;20060;-60
2023/09/07 02:33:13;;;;;;;1.60;1.40;;;15.40;99.90;;;;;;4188358;28;20044;-59
2023/09/07 02:35:37;;;;;;;1.20;1.20;;;15.30;99.90;;;;;;4188678;28;20065;-59
2023/09/07 02:37:57;;;;;;;1.75;1.75;;;15.30;99.90;;;;;;4193134;28;20394;-59
2023/09/07 02:40:18;;;;;;;1.70;1.70;;;15.40;99.90;;;;;;4190294;28;20051;-60
2023/09/07 02:42:38;;;;;;;1.45;1.45;;;15.30;99.90;;;;;;4189135;28;20367;-59
2023/09/07 02:44:58;;;;;;;1.83;1.83;;;15.10;99.90;;;;;;4188356;28;20052;-59
2023/09/07 02:47:18;;;;;;;2.15;1.70;;;15.10;99.90;;;;;;4188216;28;20305;-59
2023/09/07 02:49:39;;;;;;;2.10;2.00;;;15.10;99.90;;;;;;4188695;28;20405;-59
2023/09/07 02:51:59;;;;;;;1.40;1.40;;;14.90;99.90;;;;;;4187790;28;20063;-59
2023/09/07 02:54:19;;;;;;;2.47;1.38;;;15.10;99.90;;;;;;4190769;28;20112;-59
2023/09/07 02:56:39;;;;;;;1.30;1.30;;;15.20;99.90;;;;;;4197106;28;20101;-59
2023/09/07 02:59:00;;;;;;;2.05;1.75;;;15.00;99.90;;;;;;4195314;28;20101;-59
2023/09/07 03:01:20;;;;;;;1.60;1.60;;;15.10;99.90;;;;;;4196780;28;20044;-59
2023/09/07 03:03:42;;;;;;;1.40;1.40;;;15.00;99.90;;;;;;4194757;28;20480;-60
2023/09/07 03:06:11;;;;;;;1.57;1.57;;;15.10;99.90;;;;;;4192032;28;20147;-59
2023/09/07 03:08:30;;;;;;;2.80;2.15;;;15.10;99.90;;;;;;4190922;28;20298;-59
2023/09/07 03:10:50;;;;;;;1.20;1.20;;;15.10;99.90;;;;;;4194088;28;20048;-59
2023/09/07 03:13:10;;;;;;;1.50;1.40;;;15.20;99.90;;;;;;4191032;28;20051;-60
2023/09/07 03:15:30;;;;;;;1.70;1.70;;;15.30;99.90;;;;;;4193829;28;20300;-59
2023/09/07 03:17:50;;;;;;;1.40;1.40;;;15.20;99.90;;;;;;4191210;28;20059;-59
2023/09/07 03:20:14;;;;;;;1.60;1.60;;;15.10;99.90;;;;;;4190297;28;20413;-60
2023/09/07 03:22:34;;;;;;;1.50;1.50;;;15.20;99.90;;;;;;4191212;28;20056;-60
2023/09/07 03:24:54;;;;;;;2.88;1.60;;;15.10;99.90;;;;;;4194473;28;20366;-59
2023/09/07 03:27:14;;;;;;;1.83;1.45;;;15.00;99.90;;;;;;4196584;28;20124;-59
2023/09/07 03:29:35;;;;;;;1.50;1.50;;;14.90;99.90;;;;;;4191274;28;20762;-59
2023/09/07 03:31:55;;;;;;;1.45;1.45;;;14.90;99.90;;;;;;4190606;28;20370;-60
2023/09/07 03:34:15;;;;;;;2.78;1.33;;;15.00;99.90;;;;;;4191153;28;20044;-59
2023/09/07 03:36:36;;;;;;;1.33;1.33;;;15.00;99.90;;;;;;4194585;28;20075;-59
2023/09/07 03:38:56;;;;;;;1.65;1.40;;;15.00;99.90;;;;;;4190441;28;20052;-59
2023/09/07 03:41:16;;;;;;;1.67;1.67;;;14.90;99.90;;;;;;4194884;28;20292;-59
2023/09/07 03:43:35;;;;;;;1.83;1.83;;;14.80;99.90;;;;;;4192976;28;20071;-60
2023/09/07 03:45:57;;;;;;;1.38;1.35;;;15.00;99.90;;;;;;4191840;28;20052;-59
2023/09/07 03:48:17;;;;;;;1.23;1.23;;;15.10;99.90;;;;;;4191538;28;20171;-59
2023/09/07 03:50:38;;;;;;;1.73;1.73;;;15.10;99.90;;;;;;4197793;28;20056;-59
2023/09/07 03:52:57;;;;;;;2.15;1.50;;;15.10;99.90;;;;;;4189685;28;20103;-60
2023/09/07 03:55:18;;;;;;;2.78;1.40;;;15.10;99.90;;;;;;4191520;28;20048;-60
2023/09/07 03:57:40;;;;;;;1.98;1.55;;;15.10;99.90;;;;;;4190659;28;20335;-59
2023/09/07 04:00:01;;;;;;;1.52;1.52;;;15.10;99.90;;;;;;4190156;28;20335;-59
2023/09/07 04:02:21;;;;;;;1.60;1.60;;;15.10;99.90;;;;;;4190710;28;20334;-59
2023/09/07 04:04:41;;;;;;;1.70;1.70;;;15.00;99.90;;;;;;4189907;28;20052;-59
2023/09/07 04:07:01;;;;;;;1.77;1.77;;;15.00;99.90;;;;;;4192013;28;20052;-59
2023/09/07 04:09:21;;;;;;;1.95;1.85;;;15.00;99.90;;;;;;4195494;28;20052;-59
2023/09/07 04:11:41;;;;;;;1.80;1.70;;;15.10;99.90;;;;;;4190575;28;20075;-59
2023/09/07 04:14:01;;;;;;;1.40;1.40;;;15.20;99.90;;;;;;4190714;28;20082;-59
2023/09/07 04:16:20;;;;;;;1.65;1.65;;;15.10;99.90;;;;;;4190658;28;20064;-59
2023/09/07 04:18:42;;;;;;;1.50;1.50;;;15.00;99.90;;;;;;4190048;28;20098;-59
2023/09/07 04:21:09;;;;;;;2.25;1.63;;;15.10;99.90;;;;;;4194034;28;20043;-59
2023/09/07 04:23:29;;;;;;;1.63;1.63;;;15.20;99.90;;;;;;4190716;28;20067;-59
2023/09/07 04:25:49;;;;;;;1.60;1.60;;;15.10;99.90;;;;;;4190470;28;20086;-59
2023/09/07 04:28:09;;;;;;;1.75;1.75;;;15.00;99.90;;;;;;4190457;28;20106;-59
2023/09/07 04:30:30;;;;;;;1.73;1.73;;;14.80;99.90;;;;;;4191898;28;20052;-60
2023/09/07 04:32:50;;;;;;;1.50;1.50;;;14.70;99.90;;;;;;4189176;28;20059;-60
2023/09/07 04:35:10;;;;;;;2.00;2.00;;;14.70;99.90;;;;;;4195754;28;20267;-60
2023/09/07 04:37:30;;;;;;;1.73;1.70;;;14.50;99.90;;;;;;4189357;28;20048;-59
2023/09/07 04:39:55;;;;;;;1.67;1.58;;;14.40;99.90;;;;;;4193393;28;20113;-59
2023/09/07 04:42:15;;;;;;;2.30;2.30;;;14.40;99.90;;;;;;4191920;28;20036;-59
2023/09/07 04:44:35;;;;;;;2.03;1.92;;;14.40;99.90;;;;;;4190416;28;20052;-59
2023/09/07 04:46:56;;;;;;;2.35;1.60;;;14.50;99.90;;;;;;4188119;28;20048;-59
2023/09/07 04:49:16;;;;;;;1.75;1.75;;;14.60;99.90;;;;;;4189062;28;20044;-59
2023/09/07 04:51:36;;;;;;;1.55;1.50;;;14.60;99.90;;;;;;4190526;28;20055;-59
2023/09/07 04:53:56;;;;;;;1.50;1.50;;;14.80;99.90;;;;;;4190039;28;20080;-59
2023/09/07 04:56:17;;;;;;;1.70;1.60;;;14.90;99.90;;;;;;4200969;28;20048;-59
2023/09/07 04:58:36;;;;;;;1.58;1.58;;;14.80;99.90;;;;;;4188901;28;20051;-59
2023/09/07 05:01:10;;;;;;;2.03;2.03;;;14.70;99.90;;;;;;4189713;28;20048;-59
2023/09/07 05:03:30;;;;;;;2.08;2.08;;;14.60;99.90;;;;;;4188884;28;20136;-59
2023/09/07 05:05:53;;;;;;;2.13;1.83;;;14.60;99.90;;;;;;4194408;28;20134;-59
2023/09/07 05:08:13;;;;;;;1.98;1.80;;;14.50;99.90;;;;;;4190175;28;20083;-59
2023/09/07 05:10:34;;;;;;;1.73;1.60;;;14.50;99.90;;;;;;4192596;28;20047;-59
2023/09/07 05:12:54;;;;;;;1.88;1.77;;;14.50;99.90;;;;;;4189852;28;20051;-59
2023/09/07 05:15:14;;;;;;;1.50;1.40;;;14.60;99.90;;;;;;4189888;28;20363;-59
2023/09/07 05:17:34;;;;;;;1.77;1.77;;;14.90;99.90;;;;;;4190561;28;20239;-59
2023/09/07 05:19:53;;;;;;;1.75;1.75;;;14.90;99.90;;;;;;4189554;28;20108;-59
2023/09/07 05:22:13;;;;;;;1.75;1.67;;;14.80;99.90;;;;;;4189557;28;20068;-59
2023/09/07 05:24:33;;;;;;;1.50;1.50;;;14.90;99.90;;;;;;4191923;28;20097;-58
2023/09/07 05:26:52;;;;;;;1.40;1.30;;;14.90;99.90;;;;;;4189462;28;20051;-59
2023/09/07 05:29:13;;;;;;;1.52;1.52;;;15.00;99.90;;;;;;4188173;28;20407;-58
2023/09/07 05:31:33;;;;;;;1.23;1.23;;;15.30;99.90;;;;;;4190611;28;20289;-58
2023/09/07 05:33:53;;;;;;;1.67;1.20;;;15.30;99.90;;;;;;4188807;28;20366;-59
2023/09/07 05:36:13;;;;;;;1.55;1.48;;;15.50;99.90;;;;;;4189358;28;20043;-59
2023/09/07 05:38:33;;;;;;;7.47;1.45;;;15.70;99.90;;;;;;4192007;28;20047;-59
2023/09/07 05:40:54;;;;;;;1.75;1.75;;;15.50;99.90;;;;;;4189961;28;20244;-59
2023/09/07 05:43:14;;;;;;;1.63;1.63;;;15.20;99.90;;;;;;4189391;28;20121;-58
2023/09/07 05:45:40;;;;;;;1.52;1.42;;;15.10;99.90;;;;;;4186798;28;20086;-59
2023/09/07 05:48:00;;;;;;;2.58;1.38;;;15.10;99.90;;;;;;4188162;28;20056;-58
2023/09/07 05:50:20;;;;;;;1.58;1.42;;;15.10;99.90;;;;;;4189125;28;20067;-59
2023/09/07 05:52:40;;;;;;;1.58;1.58;;;15.20;99.90;;;;;;4188936;28;20064;-59
2023/09/07 05:55:00;;;;;;;1.88;1.60;;;15.30;99.90;;;;;;4189042;28;20055;-59
2023/09/07 05:57:20;;;;;;;1.80;1.80;;;15.40;99.90;;;;;;4187684;28;20052;-59
2023/09/07 05:59:40;;;;;;;1.92;1.88;;;15.30;99.90;;;;;;4193619;28;20067;-59
2023/09/07 06:02:00;;;;;;;1.60;1.60;;;15.30;99.90;;;;;;4189730;28;20052;-58
2023/09/07 06:04:19;;;;;;;1.65;1.65;;;15.30;99.90;;;;;;4189043;28;20438;-59
2023/09/07 06:06:40;;;;;;;1.83;1.77;;;15.40;99.90;;;;;;4190005;28;20044;-59
2023/09/07 06:08:59;;;;;;;1.67;1.60;;;15.30;99.90;;;;;;4189255;28;20054;-59
2023/09/07 06:11:19;;;;;;;1.55;1.55;;;15.30;99.90;;;;;;4188842;28;20244;-59
2023/09/07 06:13:40;;;;;;;1.95;1.85;;;15.40;99.90;;;;;;4188824;28;20039;-59
2023/09/07 06:16:00;;;;;;;1.70;1.10;;;15.70;99.90;;;;;;4199233;28;20256;-59
2023/09/07 06:18:20;;;;;;;1.67;1.55;;;15.90;99.90;;;;;;4192801;28;20363;-59
2023/09/07 06:20:40;;;;;;;2.33;1.50;;;16.00;99.90;;;;;;4194119;28;20063;-58
2023/09/07 06:23:01;;;;;;;1.40;1.40;;;16.20;99.90;;;;;;4195959;28;20244;-59
2023/09/07 06:25:22;;;;;;;2.00;1.30;;;16.40;99.90;;;;;;4189914;28;20091;-59
2023/09/07 06:27:41;;;;;;;3.53;1.33;;;16.80;99.90;;;;;;4192279;28;20059;-59
2023/09/07 06:30:02;;;;;;;3.70;2.10;;;16.80;99.90;;;;;;4188495;28;20048;-59
2023/09/07 06:32:23;;;;;;;2.45;1.65;;;16.80;99.90;;;;;;4189288;28;20275;-59
2023/09/07 06:34:42;;;;;;;3.08;1.42;;;16.90;99.90;;;;;;4194096;28;20389;-59
2023/09/07 06:37:03;;;;;;;1.77;1.08;;;17.10;99.90;;;;;;4193929;28;20386;-59
2023/09/07 06:39:23;;;;;;;1.90;1.73;;;17.30;99.90;;;;;;4191330;28;20076;-59
2023/09/07 06:41:46;;;;;;;8.13;1.67;;;17.30;99.90;;;;;;4192652;28;20048;-59
2023/09/07 06:44:06;;;;;;;;;;;17.30;99.90;;;;;;4192910;28;20585;-59
2023/09/07 06:46:26;;;;;;;1.40;1.38;;;17.40;99.90;;;;;;4190632;28;19939;-59
2023/09/07 06:48:46;;;;;;;1.40;1.30;;;17.40;99.90;;;;;;4191434;28;20044;-59
2023/09/07 06:51:06;;;;;;;1.92;1.58;;;17.50;99.90;;;;;;4190589;28;20075;-59
2023/09/07 06:53:26;;;;;;;1.55;1.55;;;17.50;99.90;;;;;;4191319;28;20048;-59
2023/09/07 06:56:06;;;;;;;2.20;1.27;;;17.50;99.90;;;;;;4192076;28;20236;-58
2023/09/07 06:58:26;;;;;;;1.67;1.40;;;17.60;99.90;;;;;;4190223;28;20090;-59
2023/09/07 07:00:47;;;;;;;4.22;1.42;;;17.70;99.90;;;;;;4191022;28;20075;-61
2023/09/07 07:03:07;;;;;;;1.10;1.10;;;17.90;99.90;;;;;;4190471;28;20048;-59
2023/09/07 07:05:29;;;;;;;3.85;2.08;;;18.20;99.90;;;;;;4193510;28;20378;-59
2023/09/07 07:07:49;;;;;;;1.30;1.20;;;18.40;99.90;;;;;;4190620;28;20369;-59
2023/09/07 07:10:09;;;;;;;1.00;1.00;;;18.60;99.90;;;;;;4190152;28;20095;-59
2023/09/07 07:12:37;;;;;;;1.38;1.27;;;19.00;99.90;;;;;;4191056;28;20240;-59
2023/09/07 07:14:57;;;;;;;4.20;1.20;;;19.10;99.90;;;;;;4194117;28;20097;-59
2023/09/07 07:17:17;;;;;;;1.10;1.10;;;19.20;99.90;;;;;;4195969;28;20104;-59
2023/09/07 07:19:38;;;;;;;1.35;0.90;;;19.40;99.90;;;;;;4189891;28;20094;-59
2023/09/07 07:21:58;;;;;;;1.33;1.23;;;19.70;99.90;;;;;;4192701;28;20371;-59
2023/09/07 07:24:19;;;;;;;0.90;0.90;;;20.00;99.90;;;;;;4191568;28;20350;-59
2023/09/07 07:26:39;;;;;;;1.00;1.00;;;20.20;99.90;;;;;;4194474;28;20059;-59
2023/09/07 07:28:59;;;;;;;1.50;1.17;;;20.60;99.90;;;;;;4190805;28;20132;-59
2023/09/07 07:31:19;;;;;;;1.00;1.00;;;20.80;99.90;;;;;;4189999;28;20087;-59
2023/09/07 07:33:39;;;;;;;6.88;1.08;;;21.30;99.90;;;;;;4193302;28;20063;-59
2023/09/07 07:35:59;;;;;;;2.08;1.00;;;21.50;99.90;;;;;;4192744;28;20044;-59
2023/09/07 07:38:20;;;;;;;0.80;0.80;;;21.80;99.80;;;;;;4190806;28;20048;-59
2023/09/07 07:40:40;;;;;;;2.05;0.90;;;22.00;99.70;;;;;;4190627;28;20048;-59
2023/09/07 07:43:00;;;;;;;0.88;0.88;;;22.10;98.00;;;;;;4190400;28;20048;-58
2023/09/07 07:45:21;;;;;;;2.05;0.88;;;22.20;97.70;;;;;;4191462;28;20395;-58
2023/09/07 07:47:41;;;;;;;1.58;0.80;;;22.30;98.50;;;;;;4192299;28;20060;-59
2023/09/07 07:50:01;;;;;;;0.90;0.90;;;22.50;97.10;;;;;;4190531;28;20236;-59
2023/09/07 07:52:21;;;;;;;2.65;0.77;;;22.70;96.90;;;;;;4198504;28;20079;-59
2023/09/07 07:54:42;;;;;;;1.25;0.80;;;23.10;98.00;;;;;;4189983;28;20044;-59
2023/09/07 07:57:02;;;;;;;0.80;0.80;;;23.20;96.50;;;;;;4192327;28;20048;-59
2023/09/07 07:59:22;;;;;;;0.82;0.70;;;23.30;96.40;;;;;;4194759;28;20054;-59
2023/09/07 08:01:42;;;;;;;1.10;0.70;;;23.50;95.20;;;;;;4190148;28;20040;-59
2023/09/07 08:04:02;;;;;;;0.73;0.70;;;23.70;94.50;;;;;;4191987;28;20068;-59
2023/09/07 08:06:24;;;;;;;1.05;0.80;;;23.80;92.90;;;;;;4190013;28;20220;-59
2023/09/07 08:08:43;;;;;;;0.80;0.80;;;24.00;93.70;;;;;;4190593;28;20067;-59
2023/09/07 08:11:07;;;;;;;1.42;0.80;;;24.10;93.90;;;;;;4190416;28;20071;-59
2023/09/07 08:13:27;;;;;;;1.13;0.70;;;24.20;94.10;;;;;;4191100;28;20370;-59
2023/09/07 08:15:48;;;;;;;2.05;0.70;;;24.30;93.30;;;;;;4190229;28;20182;-59
2023/09/07 08:18:08;;;;;;;0.70;0.70;;;24.70;93.40;;;;;;4190210;28;20048;-59
2023/09/07 08:20:32;;;;;;;1.10;0.80;;;24.90;92.90;;;;;;4192124;28;20406;-59
2023/09/07 08:22:52;;;;;;;0.77;0.77;;;24.80;93.90;;;;;;4189256;28;20076;-59
2023/09/07 08:25:13;;;;;;;2.95;0.77;;;24.90;91.10;;;;;;4190189;28;20090;-59
2023/09/07 08:27:33;;;;;;;0.70;0.70;;;24.70;91.50;;;;;;4189851;28;20044;-59
2023/09/07 08:29:53;;;;;;;0.80;0.77;;;24.50;91.50;;;;;;4194221;28;20124;-59
2023/09/07 08:32:14;;;;;;;0.70;0.70;;;24.40;91.40;;;;;;4191924;28;20067;-59
2023/09/07 08:34:35;;;;;;;2.95;0.70;;;24.50;90.60;;;;;;4191642;28;20236;-59
2023/09/07 08:36:58;;;;;;;0.90;0.90;;;24.60;91.20;;;;;;4189209;28;20107;-59
2023/09/07 08:39:20;;;;;;;0.70;0.70;;;24.90;90.80;;;;;;4188888;28;20060;-59
2023/09/07 08:41:43;;;;;;;0.70;0.70;;;25.00;91.90;;;;;;4190018;28;20048;-59
2023/09/07 08:44:21;;;;;;;0.70;0.70;;;25.10;90.40;;;;;;4192629;28;20102;-59
2023/09/07 08:46:42;;;;;;;2.05;0.70;;;25.20;91.70;;;;;;4188956;28;20067;-59
2023/09/07 08:49:03;;;;;;;1.75;0.70;;;25.20;90.80;;;;;;4189827;28;20168;-59
2023/09/07 08:51:27;;;;;;;0.60;0.60;;;25.30;91.00;;;;;;4191350;28;20108;-59
2023/09/07 08:53:49;;;;;;;0.70;0.70;;;25.50;90.70;;;;;;4196067;28;20039;-59
2023/09/07 08:56:12;;;;;;;1.05;0.68;;;25.70;90.40;;;;;;4191188;28;20082;-59
2023/09/07 08:58:32;;;;;;;0.75;0.75;;;25.60;90.90;;;;;;4189690;28;20082;-59
2023/09/07 09:00:53;;;;;;;1.20;0.60;;;25.50;90.90;;;;;;4189290;28;20063;-59
2023/09/07 09:03:13;;;;;;;2.20;0.80;;;25.60;91.60;;;;;;4190461;28;20043;-59
2023/09/07 09:05:35;;;;;;;1.55;0.70;;;26.00;91.40;;;;;;4188837;28;20054;-59
2023/09/07 09:08:05;;;;;;;0.60;0.60;;;26.00;90.70;;;;;;4193896;28;20115;-59
2023/09/07 09:10:25;;;;;;;1.40;0.70;;;25.90;90.40;;;;;;4189580;28;20091;-59
2023/09/07 09:12:49;;;;;;;1.17;0.70;;;25.60;90.00;;;;;;4189579;28;20292;-59
2023/09/07 09:15:09;;;;;;;0.70;0.70;;;25.70;90.70;;;;;;4188981;28;20056;-59
2023/09/07 09:17:29;;;;;;;0.75;0.60;;;25.90;88.50;;;;;;4198836;28;20381;-59
2023/09/07 09:19:49;;;;;;;0.60;0.60;;;25.90;88.70;;;;;;4194043;28;20405;-60
2023/09/07 09:22:11;;;;;;;0.60;0.60;;;25.70;89.00;;;;;;4189594;28;20330;-59
2023/09/07 09:24:34;;;;;;;2.58;0.70;;;25.90;88.90;;;;;;4194592;28;20079;-59
2023/09/07 09:26:54;;;;;;;1.13;0.70;;;26.00;87.10;;;;;;4191166;28;20070;-60
2023/09/07 09:29:15;;;;;;;0.60;0.60;;;26.00;88.20;;;;;;4189359;28;20082;-59
2023/09/07 09:31:35;;;;;;;0.70;0.70;;;26.00;88.40;;;;;;4188626;28;20117;-59
2023/09/07 09:33:55;;;;;;;5.05;1.35;;;26.10;90.00;;;;;;4189659;28;20235;-59
2023/09/07 09:36:16;;;;;;;0.70;0.70;;;26.40;89.10;;;;;;4198798;28;20043;-59
2023/09/07 09:38:36;;;;;;;1.73;0.63;;;26.50;88.60;;;;;;4191015;28;20095;-59
2023/09/07 09:40:57;;;;;;;0.60;0.60;;;26.50;87.90;;;;;;4189183;28;20087;-60
2023/09/07 09:43:20;;;;;;;0.60;0.60;;;26.60;86.70;;;;;;4196115;28;20105;-59
2023/09/07 09:45:40;;;;;;;1.23;0.60;;;26.50;87.80;;;;;;4189382;28;20072;-59
2023/09/07 09:48:00;;;;;;;0.60;0.60;;;26.40;88.40;;;;;;4194657;28;20044;-59
2023/09/07 09:50:21;;;;;;;2.28;0.60;;;26.40;88.20;;;;;;4188390;28;20060;-59
2023/09/07 09:52:40;;;;;;;1.00;0.70;;;26.30;88.30;;;;;;4187972;28;20052;-59
2023/09/07 09:55:01;;;;;;;2.67;0.70;;;26.40;86.80;;;;;;4188873;28;20056;-59
2023/09/07 09:57:21;;;;;;;0.60;0.60;;;26.50;87.90;;;;;;4188958;28;20113;-59
2023/09/07 09:59:43;;;;;;;5.07;0.70;;;26.50;88.70;;;;;;4188863;28;20055;-59
2023/09/07 10:02:04;;;;;;;0.70;0.70;;;26.80;90.00;;;;;;4188976;28;20055;-59
2023/09/07 10:04:25;;;;;;;0.60;0.60;;;26.90;88.70;;;;;;4188613;28;20083;-59
2023/09/07 10:06:57;;;;;;;0.70;0.70;;;26.80;87.30;;;;;;4187536;28;20056;-60
2023/09/07 10:09:19;;;;;;;;;;;26.80;88.90;;;;;;4191111;28;20155;-59
2023/09/07 10:11:38;;;;;;;1.10;0.90;;;26.80;87.40;;;;;;4187954;28;19984;-59
2023/09/07 10:14:00;;;;;;;0.60;0.60;;;26.80;86.50;;;;;;4194375;28;20064;-59
2023/09/07 10:16:20;;;;;;;0.60;0.60;;;26.80;87.10;;;;;;4188538;28;20039;-59
2023/09/07 10:18:40;;;;;;;1.23;0.60;;;26.70;87.70;;;;;;4188405;28;20398;-59
2023/09/07 10:21:02;;;;;;;1.60;0.60;;;26.80;88.40;;;;;;4188635;28;20082;-59
2023/09/07 10:23:26;;;;;;;0.60;0.60;;;26.60;86.70;;;;;;4191345;28;20043;-59
2023/09/07 10:25:53;;;;;;;0.70;0.70;;;26.50;87.70;;;;;;4192578;28;20047;-58
2023/09/07 10:28:23;;;;;;;0.63;0.63;;;26.60;87.30;;;;;;4189665;28;20052;-59
2023/09/07 10:30:43;;;;;;;2.05;1.88;;;26.80;86.30;;;;;;4180042;28;20079;-59
2023/09/07 10:33:03;;;;;;;0.60;0.60;;;27.10;87.60;;;;;;4190745;28;20099;-59
2023/09/07 10:35:25;;;;;;;0.60;0.60;;;27.10;86.40;;;;;;4196788;28;20068;-59
2023/09/07 10:37:49;;;;;;;0.60;0.60;;;27.10;87.90;;;;;;4195563;28;20048;-59
2023/09/07 10:40:11;;;;;;;0.70;0.70;;;27.20;89.10;;;;;;4189424;28;20283;-59
2023/09/07 10:42:33;;;;;;;0.68;0.68;;;27.70;88.80;;;;;;4188202;28;20091;-59
2023/09/07 10:44:53;;;;;;;0.68;0.68;;;27.60;85.00;;;;;;4187939;28;20048;-59
2023/09/07 10:47:13;;;;;;;1.70;0.60;;;27.10;85.70;;;;;;4188193;28;20067;-59
2023/09/07 10:49:36;;;;;;;1.40;0.60;;;27.10;86.80;;;;;;4188785;28;20060;-59
2023/09/07 10:51:56;;;;;;;0.70;0.70;;;27.20;86.00;;;;;;4189043;28;20235;-59
2023/09/07 10:54:23;;;;;;;0.70;0.70;;;26.90;87.00;;;;;;4192425;28;20056;-59
2023/09/07 10:56:45;;;;;;;2.28;0.70;;;27.10;87.20;;;;;;4191015;28;20066;-58
2023/09/07 10:59:05;;;;;;;4.50;0.67;;;27.30;86.40;;;;;;4187378;28;20133;-59
2023/09/07 11:01:24;;;;;;;0.60;0.60;;;27.30;89.20;;;;;;4188525;28;20059;-59
2023/09/07 11:03:44;;;;;;;0.60;0.60;;;27.50;86.20;;;;;;4186974;28;20056;-59
2023/09/07 11:06:16;;;;;;;1.92;0.60;;;27.60;85.70;;;;;;4188458;28;20108;-59
2023/09/07 11:08:36;;;;;;;0.68;0.60;;;27.70;84.20;;;;;;4191681;28;20091;-59
2023/09/07 11:10:56;;;;;;;0.60;0.60;;;27.60;84.70;;;;;;4189753;28;20087;-59
2023/09/07 11:13:16;;;;;;;2.10;0.60;;;27.70;85.00;;;;;;4189381;28;20113;-59
2023/09/07 11:15:39;;;;;;;3.17;0.60;;;28.00;84.70;;;;;;4188672;28;20067;-59
2023/09/07 11:18:07;;;;;;;0.63;0.63;;;27.80;83.90;;;;;;4188340;28;20048;-59
2023/09/07 11:20:28;;;;;;;0.60;0.60;;;27.90;83.80;;;;;;4196061;28;20084;-59
2023/09/07 11:22:48;;;;;;;0.95;0.60;;;27.90;84.20;;;;;;4192916;28;20232;-59
2023/09/07 11:25:24;;;;;;;0.70;0.70;;;27.70;84.00;;;;;;4193357;28;20466;-59
2023/09/07 11:27:44;;;;;;;1.05;0.63;;;27.70;84.60;;;;;;4191593;28;20052;-59
2023/09/07 11:30:07;;;;;;;0.70;0.68;;;27.70;83.10;;;;;;4193869;28;20048;-59
2023/09/07 11:32:33;;;;;;;0.60;0.60;;;28.00;83.80;;;;;;4190094;28;20244;-59
2023/09/07 11:34:54;;;;;;;1.17;0.60;;;27.60;83.60;;;;;;4191496;28;20401;-59
2023/09/07 11:37:25;;;;;;;1.52;0.60;;;27.60;83.60;;;;;;4192648;28;20040;-58
2023/09/07 11:39:45;;;;;;;0.60;0.60;;;27.50;82.30;;;;;;4190926;28;20090;-58
2023/09/07 11:42:05;;;;;;;1.65;0.70;;;27.50;82.20;;;;;;4191152;28;20079;-59
2023/09/07 11:44:25;;;;;;;1.23;0.70;;;27.40;83.90;;;;;;4191119;28;20051;-59
2023/09/07 11:46:45;;;;;;;2.45;0.70;;;27.50;83.80;;;;;;4192007;28;20052;-58
2023/09/07 11:49:05;;;;;;;1.52;0.77;;;27.50;84.20;;;;;;4190777;28;20072;-58
2023/09/07 11:51:25;;;;;;;0.70;0.70;;;28.00;84.20;;;;;;4189890;28;20402;-58
2023/09/07 11:53:46;;;;;;;1.65;0.60;;;28.40;82.00;;;;;;4190078;28;20048;-58
2023/09/07 11:56:06;;;;;;;2.80;0.68;;;28.40;82.80;;;;;;4192639;28;20279;-59
2023/09/07 11:58:26;;;;;;;0.70;0.70;;;28.40;83.50;;;;;;4191684;28;20047;-58
2023/09/07 12:00:50;;;;;;;0.77;0.70;;;28.30;81.80;;;;;;4190171;28;20155;-59
2023/09/07 12:03:09;;;;;;;0.60;0.60;;;28.30;81.70;;;;;;4190744;28;20047;-58
2023/09/07 12:05:29;;;;;;;0.80;0.80;;;28.30;81.00;;;;;;4189232;28;20083;-59
2023/09/07 12:07:49;;;;;;;0.60;0.60;;;28.60;82.50;;;;;;4190758;28;20079;-59
2023/09/07 12:10:10;;;;;;;1.25;0.60;;;28.90;80.00;;;;;;4193560;28;20355;-59
2023/09/07 12:12:30;;;;;;;0.70;0.70;;;28.80;81.00;;;;;;4198880;28;20083;-58
2023/09/07 12:14:49;;;;;;;0.60;0.60;;;28.70;80.20;;;;;;4190134;28;20107;-59
2023/09/07 12:17:09;;;;;;;2.78;0.60;;;28.80;82.60;;;;;;4191898;28;20401;-59